createdAt,value
2018-11-26T00:01:09.370Z,72.05
2018-11-26T00:03:43.145Z,67.87
2018-11-26T00:06:17.212Z,62.00
2018-11-26T00:08:53.959Z,66.17
2018-11-26T00:11:40.706Z,64.53
2018-11-26T00:14:15.571Z,54.47
2018-11-26T00:16:49.618Z,67.70
2018-11-26T00:19:25.043Z,67.30
2018-11-26T00:21:57.450Z,66.73
2018-11-26T00:24:29.936Z,66.83
2018-11-26T00:27:02.621Z,68.63
2018-11-26T00:29:34.705Z,67.13
2018-11-26T00:32:05.915Z,78.07
2018-11-26T00:37:32.325Z,56.70
2018-11-26T00:40:06.026Z,66.10
2018-11-26T00:42:41.901Z,72.27
2018-11-26T00:45:18.229Z,75.07
2018-11-26T00:47:48.643Z,55.77
2018-11-26T00:50:19.657Z,71.40
2018-11-26T00:52:50.960Z,67.40
2018-11-26T00:55:23.046Z,68.17
2018-11-26T00:57:58.978Z,62.93
2018-11-26T01:00:33.139Z,70.80
2018-11-26T01:03:08.019Z,64.37
2018-11-26T01:05:39.638Z,62.63
2018-11-26T01:08:10.126Z,59.30
2018-11-26T01:10:41.390Z,59.20
2018-11-26T01:13:11.884Z,59.70
2018-11-26T01:15:44.520Z,76.43
2018-11-26T01:18:17.969Z,77.67
2018-11-26T01:20:49.906Z,65.33
2018-11-26T01:23:23.344Z,68.23
2018-11-26T01:25:58.491Z,69.12
2018-11-26T01:28:31.928Z,72.70
2018-11-26T01:31:03.246Z,72.37
2018-11-26T01:33:35.871Z,74.00
2018-11-26T01:36:06.978Z,75.77
2018-11-26T01:38:39.257Z,67.07
2018-11-26T01:41:15.683Z,82.67
2018-11-26T01:43:50.663Z,67.80
2018-11-26T01:46:23.045Z,76.43
2018-11-26T01:48:56.246Z,81.80
2018-11-26T01:51:29.265Z,78.77
2018-11-26T01:54:03.565Z,70.00
2018-11-26T01:56:35.257Z,70.07
2018-11-26T01:59:08.527Z,65.07
2018-11-26T02:01:39.777Z,79.13
2018-11-26T02:04:11.977Z,72.47
2018-11-26T02:06:44.107Z,77.00
2018-11-26T02:09:16.225Z,76.90
2018-11-26T02:11:49.945Z,70.10
2018-11-26T02:14:22.141Z,69.30
2018-11-26T02:16:52.831Z,68.13
2018-11-26T02:19:24.029Z,76.07
2018-11-26T02:21:54.425Z,69.80
2018-11-26T02:24:26.291Z,62.37
2018-11-26T02:26:58.738Z,71.13
2018-11-26T02:29:33.438Z,66.55
2018-11-26T02:32:04.529Z,60.37
2018-11-26T02:34:35.486Z,67.30
2018-11-26T02:37:06.026Z,56.57
2018-11-26T02:39:38.653Z,67.47
2018-11-26T02:42:11.656Z,63.30
2018-11-26T02:44:42.213Z,63.27
2018-11-26T02:47:17.021Z,60.90
2018-11-26T02:49:47.904Z,59.83
2018-11-26T02:52:19.838Z,59.53
2018-11-26T02:54:51.765Z,61.93
2018-11-26T02:57:22.185Z,63.57
2018-11-26T02:59:54.903Z,59.30
2018-11-26T03:02:27.812Z,58.90
2018-11-26T03:04:59.041Z,56.00
2018-11-26T03:07:33.139Z,55.97
2018-11-26T03:10:05.568Z,51.07
2018-11-26T03:12:38.008Z,54.47
2018-11-26T03:15:15.291Z,66.33
2018-11-26T03:17:49.298Z,60.10
2018-11-26T03:20:19.596Z,52.63
2018-11-26T03:22:52.309Z,59.73
2018-11-26T03:25:26.267Z,53.73
2018-11-26T03:27:57.988Z,57.50
2018-11-26T03:30:30.797Z,59.37
2018-11-26T03:33:03.965Z,52.07
2018-11-26T03:35:37.983Z,58.17
2018-11-26T03:38:13.722Z,57.70
2018-11-26T03:40:44.845Z,56.57
2018-11-26T03:43:19.097Z,52.47
2018-11-26T03:45:49.660Z,49.63
2018-11-26T03:48:20.837Z,57.60
2018-11-26T03:50:53.041Z,59.43
2018-11-26T03:53:23.906Z,51.67
2018-11-26T03:55:55.120Z,52.87
2018-11-26T03:58:27.086Z,63.47
2018-11-26T04:00:59.029Z,52.60
2018-11-26T04:03:32.308Z,53.90
2018-11-26T04:06:06.921Z,63.03
2018-11-26T04:08:40.978Z,54.53
2018-11-26T04:11:13.458Z,56.55
2018-11-26T04:13:45.205Z,56.53
2018-11-26T04:16:18.427Z,52.87
2018-11-26T04:18:50.156Z,51.33
2018-11-26T04:21:22.317Z,51.63
2018-11-26T04:23:52.460Z,47.20
2018-11-26T04:26:24.541Z,52.63
2018-11-26T04:28:56.111Z,47.90
2018-11-26T04:31:28.443Z,58.73
2018-11-26T04:33:59.238Z,51.73
2018-11-26T04:36:34.882Z,57.80
2018-11-26T04:39:11.107Z,53.13
2018-11-26T04:41:44.588Z,53.83
2018-11-26T04:44:17.784Z,49.77
2018-11-26T04:46:49.247Z,59.00
2018-11-26T04:49:20.833Z,52.33
2018-11-26T04:51:52.135Z,57.03
2018-11-26T04:54:25.892Z,57.73
2018-11-26T04:56:58.646Z,53.30
2018-11-26T04:59:30.607Z,52.10
2018-11-26T05:02:04.259Z,59.03
2018-11-26T05:04:35.622Z,49.50
2018-11-26T05:07:08.463Z,58.20
2018-11-26T05:09:41.586Z,54.37
2018-11-26T05:12:17.473Z,53.37
2018-11-26T05:14:51.900Z,60.23
2018-11-26T05:17:23.891Z,51.67
2018-11-26T05:20:00.967Z,57.60
2018-11-26T05:22:36.971Z,52.53
2018-11-26T05:25:09.522Z,57.13
2018-11-26T05:27:43.131Z,52.37
2018-11-26T05:30:16.631Z,54.17
2018-11-26T05:32:53.135Z,52.03
2018-11-26T05:35:38.879Z,56.33
2018-11-26T05:38:11.364Z,52.88
2018-11-26T05:40:47.338Z,55.40
2018-11-26T05:43:23.189Z,48.10
2018-11-26T05:46:15.807Z,58.07
2018-11-26T05:48:53.457Z,60.17
2018-11-26T05:51:29.283Z,59.10
2018-11-26T05:54:01.177Z,79.13
2018-11-26T05:56:34.286Z,52.40
2018-11-26T05:59:08.912Z,52.13
2018-11-26T06:04:28.365Z,50.40
2018-11-26T06:07:10.208Z,50.23
2018-11-26T06:09:44.384Z,51.87
2018-11-26T06:12:23.084Z,42.13
2018-11-26T06:15:00.102Z,49.13
2018-11-26T06:17:34.986Z,55.17
2018-11-26T06:20:15.014Z,51.20
2018-11-26T06:22:53.460Z,57.03
2018-11-26T06:25:27.867Z,43.40
2018-11-26T06:28:08.927Z,49.10
2018-11-26T06:30:59.117Z,57.10
2018-11-26T06:33:32.374Z,50.10
2018-11-26T06:36:12.877Z,52.73
2018-11-26T06:38:49.371Z,49.20
2018-11-26T06:41:31.205Z,45.07
2018-11-26T06:44:08.667Z,52.93
2018-11-26T06:46:44.237Z,44.73
2018-11-26T06:49:25.458Z,41.63
2018-11-26T06:52:01.422Z,49.33
2018-11-26T06:54:50.231Z,57.63
2018-11-26T06:57:28.956Z,51.40
2018-11-26T07:00:07.210Z,49.93
2018-11-26T07:02:48.577Z,57.67
2018-11-26T07:05:40.908Z,48.10
2018-11-26T07:08:15.429Z,48.57
2018-11-26T07:10:57.212Z,49.33
2018-11-26T07:13:30.236Z,66.23
2018-11-26T07:16:12.387Z,45.00
2018-11-26T07:19:24.280Z,53.13
2018-11-26T07:22:04.167Z,66.60
2018-11-26T07:24:37.039Z,58.47
2018-11-26T07:27:15.330Z,38.93
2018-11-26T07:32:52.247Z,53.48
2018-11-26T07:35:29.222Z,41.57
2018-11-26T07:38:18.845Z,52.80
2018-11-26T07:41:13.292Z,47.27
2018-11-26T07:43:51.030Z,48.63
2018-11-26T07:46:29.986Z,53.73
2018-11-26T07:49:12.889Z,48.07
2018-11-26T07:51:50.288Z,51.40
2018-11-26T07:54:43.489Z,49.30
2018-11-26T07:57:34.290Z,49.90
2018-11-26T08:00:14.358Z,50.70
2018-11-26T08:02:51.788Z,51.83
2018-11-26T08:05:35.163Z,49.30
2018-11-26T08:08:08.090Z,52.15
2018-11-26T08:10:44.567Z,46.40
2018-11-26T08:13:21.368Z,55.50
2018-11-26T08:16:00.990Z,46.93
2018-11-26T08:18:49.387Z,52.87
2018-11-26T08:24:37.572Z,51.77
2018-11-26T08:27:28.337Z,45.23
2018-11-26T08:30:15.871Z,49.73
2018-11-26T08:32:56.465Z,49.47
2018-11-26T08:35:34.917Z,49.87
2018-11-26T08:38:25.002Z,56.87
2018-11-26T08:46:39.613Z,52.07
2018-11-26T08:49:18.915Z,47.93
2018-11-26T08:52:05.739Z,53.20
2018-11-26T08:54:49.128Z,53.33
2018-11-26T08:57:39.067Z,48.53
2018-11-26T09:00:23.232Z,58.27
2018-11-26T09:03:28.758Z,54.27
2018-11-26T09:06:05.536Z,56.73
2018-11-26T09:08:46.747Z,55.90
2018-11-26T09:11:32.868Z,51.37
2018-11-26T09:14:15.428Z,56.87
2018-11-26T09:16:56.148Z,59.40
2018-11-26T09:19:35.448Z,64.53
2018-11-26T09:22:12.534Z,50.23
2018-11-26T09:25:01.624Z,56.47
2018-11-26T09:27:47.255Z,52.63
2018-11-26T09:30:26.011Z,54.60
2018-11-26T09:33:01.757Z,51.00
2018-11-26T09:35:43.046Z,50.73
2018-11-26T09:38:31.697Z,60.60
2018-11-26T09:41:36.288Z,51.87
2018-11-26T09:44:12.016Z,57.10
2018-11-26T09:46:51.668Z,55.47
2018-11-26T09:49:30.989Z,59.65
2018-11-26T09:52:12.698Z,54.30
2018-11-26T09:54:54.859Z,59.77
2018-11-26T09:57:35.471Z,63.70
2018-11-26T10:00:17.735Z,58.97
2018-11-26T10:06:01.798Z,57.20
2018-11-26T10:08:42.506Z,58.40
2018-11-26T10:11:26.827Z,57.50
2018-11-26T10:14:10.527Z,58.27
2018-11-26T10:16:48.787Z,50.10
2018-11-26T10:19:37.484Z,69.17
2018-11-26T10:22:19.710Z,58.23
2018-11-26T10:25:05.633Z,57.17
2018-11-26T10:27:52.811Z,65.40
2018-11-26T10:30:32.811Z,67.57
2018-11-26T10:33:26.369Z,58.23
2018-11-26T10:39:21.369Z,58.47
2018-11-26T10:50:41.837Z,50.63
2018-11-26T10:53:24.879Z,48.70
2018-11-26T10:56:06.888Z,65.12
2018-11-26T10:58:50.949Z,50.60
2018-11-26T11:01:34.495Z,52.97
2018-11-26T11:04:28.456Z,59.23
2018-11-26T11:07:11.156Z,62.60
2018-11-26T11:09:55.601Z,65.17
2018-11-26T11:12:37.092Z,58.07
2018-11-26T11:15:28.059Z,60.67
2018-11-26T11:18:18.379Z,58.80
2018-11-26T11:21:03.259Z,70.27
2018-11-26T11:23:39.850Z,66.07
2018-11-26T11:26:20.602Z,59.00
2018-11-26T11:29:00.707Z,72.60
2018-11-26T11:31:37.673Z,62.97
2018-11-26T11:34:12.146Z,66.70
2018-11-26T11:36:50.807Z,63.00
2018-11-26T11:39:43.131Z,68.10
2018-11-26T11:42:22.778Z,59.33
2018-11-26T11:45:07.558Z,68.33
2018-11-26T11:47:53.761Z,58.17
2018-11-26T11:50:34.760Z,66.97
2018-11-26T11:53:16.844Z,71.83
2018-11-26T11:55:58.216Z,69.20
2018-11-26T11:58:59.109Z,65.67
2018-11-26T12:01:53.828Z,60.27
2018-11-26T12:04:39.775Z,62.00
2018-11-26T12:07:29.692Z,70.20
2018-11-26T12:10:23.084Z,60.00
2018-11-26T12:13:09.508Z,68.80
2018-11-26T12:15:55.166Z,57.10
2018-11-26T12:18:30.576Z,65.90
2018-11-26T12:21:12.150Z,65.27
2018-11-26T12:23:50.447Z,69.80
2018-11-26T12:26:35.255Z,61.80
2018-11-26T12:29:08.443Z,62.83
2018-11-26T12:31:57.380Z,68.83
2018-11-26T12:34:40.102Z,54.73
2018-11-26T12:50:59.752Z,61.10
2018-11-26T12:53:45.615Z,60.50
2018-11-26T12:57:28.947Z,62.73
2018-11-26T13:00:15.175Z,55.60
2018-11-26T13:03:03.338Z,61.83
2018-11-26T13:06:06.343Z,65.13
2018-11-26T13:08:47.598Z,67.80
2018-11-26T13:11:25.731Z,64.47
2018-11-26T13:14:02.578Z,61.13
2018-11-26T13:16:57.893Z,78.77
2018-11-26T13:19:51.528Z,64.20
2018-11-26T13:22:33.474Z,63.67
2018-11-26T13:25:42.516Z,73.63
2018-11-26T13:28:26.262Z,62.80
2018-11-26T13:31:05.688Z,71.00
2018-11-26T13:33:50.783Z,61.07
2018-11-26T13:39:18.159Z,60.23
2018-11-26T13:41:56.999Z,69.40
2018-11-26T13:47:35.815Z,61.37
2018-11-26T13:50:15.774Z,59.17
2018-11-26T13:52:53.649Z,62.97
2018-11-26T13:55:36.924Z,58.13
2018-11-26T13:58:20.827Z,56.10
2018-11-26T14:01:05.011Z,58.27
2018-11-26T14:03:50.731Z,56.87
2018-11-26T14:06:36.733Z,64.30
2018-11-26T14:09:32.039Z,55.40
2018-11-26T14:12:21.236Z,57.77
2018-11-26T14:14:58.649Z,51.77
2018-11-26T14:17:35.312Z,53.47
2018-11-26T14:20:35.067Z,51.07
2018-11-26T14:23:18.469Z,52.90
2018-11-26T14:26:08.838Z,56.10
2018-11-26T14:28:55.058Z,57.60
2018-11-26T14:31:36.335Z,53.43
2018-11-26T14:34:18.318Z,51.90
2018-11-26T14:37:09.946Z,52.00
2018-11-26T14:39:57.565Z,66.90
2018-11-26T14:42:45.542Z,53.83
2018-11-26T14:47:36.355Z,63.57
2018-11-26T14:50:39.559Z,73.33
2018-11-26T14:53:26.464Z,59.70
2018-11-26T14:56:20.953Z,66.03
2018-11-26T14:58:59.338Z,74.97
2018-11-26T15:02:03.541Z,79.63
2018-11-26T15:04:58.007Z,64.47
2018-11-26T15:07:57.447Z,58.70
2018-11-26T15:10:40.968Z,60.50
2018-11-26T15:13:23.116Z,66.13
2018-11-26T15:16:08.964Z,65.30
2018-11-26T15:18:52.008Z,67.00
2018-11-26T15:21:32.292Z,59.90
2018-11-26T15:24:24.826Z,58.00
2018-11-26T15:27:13.196Z,64.83
2018-11-26T15:30:12.611Z,61.97
2018-11-26T15:32:57.033Z,61.27
2018-11-26T15:35:41.577Z,61.63
2018-11-26T15:38:15.545Z,60.63
2018-11-26T15:41:02.410Z,60.10
2018-11-26T15:43:47.057Z,51.27
2018-11-26T15:46:30.115Z,66.50
2018-11-26T15:49:12.557Z,59.50
2018-11-26T15:54:32.892Z,62.43
2018-11-26T16:00:12.036Z,72.47
2018-11-26T16:02:49.204Z,64.33
2018-11-26T16:05:33.782Z,69.70
2018-11-26T16:08:16.149Z,68.37
2018-11-26T16:11:02.892Z,80.20
2018-11-26T16:13:56.919Z,72.23
